Aviation Digital Data Service (ADDS)

Output produced by METARs form (1038 UTC 19 January 2019)
found at http://www.aviationweather.gov/metar/data/
 
METAR text: CYTZ 191000Z AUTO 06009KT 350V080 9SM BKN037 OVC044 M10/M17 A3029 RMK SLP262
Conditions at: CYTZ (TORONTO IL VOR , ON, CA) observed 1000 UTC 19 January 2019
Temperature: -10.0°C (14°F)
Dewpoint: -17.0°C ( 1°F) [RH = 57%]
Pressure (altimeter): 30.29 inches Hg (1025.8 mb)
[Sea-level pressure: 1026.2 mb]
Winds: from the ENE (60 degrees) at 10 MPH (9 knots; 4.6 m/s)
Visibility: 9 miles (14 km)
Ceiling: 3700 feet AGL
Clouds: broken clouds at 3700 feet AGL
overcast cloud deck at 4400 feet AGL
Weather: no significant weather observed at this time

METAR text: CYTZ 190900Z AUTO VRB04KT 9SM OVC044 M10/M17 A3029 RMK SLP263
Conditions at: CYTZ (TORONTO IL VOR , ON, CA) observed 0900 UTC 19 January 2019
Temperature: -10.0°C (14°F)
Dewpoint: -17.0°C ( 1°F) [RH = 57%]
Pressure (altimeter): 30.29 inches Hg (1025.8 mb)
[Sea-level pressure: 1026.3 mb]
Winds: variable direction winds at 5 MPH (4 knots; 2.1 m/s)
Visibility: 9 miles (14 km)
Ceiling: 4400 feet AGL
Clouds: overcast cloud deck at 4400 feet AGL
Weather: no significant weather observed at this time

METAR text: CYTZ 190800Z AUTO 36009KT 320V050 9SM FEW095 M09/M17 A3031 RMK SLP270
Conditions at: CYTZ (TORONTO IL VOR , ON, CA) observed 0800 UTC 19 January 2019
Temperature: -9.0°C (16°F)
Dewpoint: -17.0°C ( 1°F) [RH = 52%]
Pressure (altimeter): 30.31 inches Hg (1026.5 mb)
[Sea-level pressure: 1027.0 mb]
Winds: from the N (360 degrees) at 10 MPH (9 knots; 4.6 m/s)
Visibility: 9 miles (14 km)
Ceiling: at least 12,000 feet AGL
Clouds: few clouds at 9500 feet AGL
Weather: no significant weather observed at this time

METAR text: CYTZ 190700Z AUTO 34009KT 320V030 9SM BKN100 M09/M17 A3030 RMK SLP265
Conditions at: CYTZ (TORONTO IL VOR , ON, CA) observed 0700 UTC 19 January 2019
Temperature: -9.0°C (16°F)
Dewpoint: -17.0°C ( 1°F) [RH = 52%]
Pressure (altimeter): 30.30 inches Hg (1026.2 mb)
[Sea-level pressure: 1026.5 mb]
Winds: from the NNW (340 degrees) at 10 MPH (9 knots; 4.6 m/s)
Visibility: 9 miles (14 km)
Ceiling: 10000 feet AGL
Clouds: broken clouds at 10000 feet AGL
Weather: no significant weather observed at this time

METAR text: CYTZ 190600Z AUTO 36015G21KT 9SM OVC100 M08/M17 A3026 RMK SLP254
Conditions at: CYTZ (TORONTO IL VOR , ON, CA) observed 0600 UTC 19 January 2019
Temperature: -8.0°C (18°F)
Dewpoint: -17.0°C ( 1°F) [RH = 48%]
Pressure (altimeter): 30.26 inches Hg (1024.8 mb)
[Sea-level pressure: 1025.4 mb]
Winds: from the N (360 degrees) at 17 MPH (15 knots; 7.7 m/s)
gusting to 24 MPH (21 knots; 10.8 m/s)
Visibility: 9 miles (14 km)
Ceiling: 10000 feet AGL
Clouds: overcast cloud deck at 10000 feet AGL
Weather: no significant weather observed at this time

METAR text: CYTZ 190529Z AUTO 35012G17KT 330V030 9SM BKN039 OVC110 M07/M12 A3026 RMK SLP252
Conditions at: CYTZ (TORONTO IL VOR , ON, CA) observed 0529 UTC 19 January 2019
Temperature: -7.0°C (19°F)
Dewpoint: -12.0°C (10°F) [RH = 67%]
Pressure (altimeter): 30.26 inches Hg (1024.8 mb)
[Sea-level pressure: 1025.2 mb]
Winds: from the N (350 degrees) at 14 MPH (12 knots; 6.2 m/s)
gusting to 20 MPH (17 knots; 8.7 m/s)
Visibility: 9 miles (14 km)
Ceiling: 3900 feet AGL
Clouds: broken clouds at 3900 feet AGL
overcast cloud deck at 11000 feet AGL
Weather: no significant weather observed at this time

METAR text: CYTZ 190500Z AUTO 36013G19KT 310V020 9SM -SN OVC041 M05/M11 A3026 RMK SLP251
Conditions at: CYTZ (TORONTO IL VOR , ON, CA) observed 0500 UTC 19 January 2019
Temperature: -5.0°C (23°F)
Dewpoint: -11.0°C (12°F) [RH = 63%]
Pressure (altimeter): 30.26 inches Hg (1024.8 mb)
[Sea-level pressure: 1025.1 mb]
Winds: from the N (360 degrees) at 15 MPH (13 knots; 6.7 m/s)
gusting to 22 MPH (19 knots; 9.8 m/s)
Visibility: 9 miles (14 km)
Ceiling: 4100 feet AGL
Clouds: overcast cloud deck at 4100 feet AGL
Weather: -SN  (light snow)

METAR text: CYTZ 190446Z AUTO 33007KT 9SM -SN OVC041 M04/M11 A3026 RMK SLP251
Conditions at: CYTZ (TORONTO IL VOR , ON, CA) observed 0446 UTC 19 January 2019
Temperature: -4.0°C (25°F)
Dewpoint: -11.0°C (12°F) [RH = 58%]
Pressure (altimeter): 30.26 inches Hg (1024.8 mb)
[Sea-level pressure: 1025.1 mb]
Winds: from the NNW (330 degrees) at 8 MPH (7 knots; 3.6 m/s)
Visibility: 9 miles (14 km)
Ceiling: 4100 feet AGL
Clouds: overcast cloud deck at 4100 feet AGL
Weather: -SN  (light snow)

METAR text: CYTZ 190428Z AUTO 33009G15KT 9SM OVC039 M04/M11 A3025 RMK SLP250
Conditions at: CYTZ (TORONTO IL VOR , ON, CA) observed 0428 UTC 19 January 2019
Temperature: -4.0°C (25°F)
Dewpoint: -11.0°C (12°F) [RH = 58%]
Pressure (altimeter): 30.25 inches Hg (1024.5 mb)
[Sea-level pressure: 1025.0 mb]
Winds: from the NNW (330 degrees) at 10 MPH (9 knots; 4.6 m/s)
gusting to 17 MPH (15 knots; 7.7 m/s)
Visibility: 9 miles (14 km)
Ceiling: 3900 feet AGL
Clouds: overcast cloud deck at 3900 feet AGL
Weather: no significant weather observed at this time

METAR text: CYTZ 190413Z AUTO 31011G16KT 300V360 9SM -SN OVC039 M04/M11 A3025 RMK SLP249
Conditions at: CYTZ (TORONTO IL VOR , ON, CA) observed 0413 UTC 19 January 2019
Temperature: -4.0°C (25°F)
Dewpoint: -11.0°C (12°F) [RH = 58%]
Pressure (altimeter): 30.25 inches Hg (1024.5 mb)
[Sea-level pressure: 1024.9 mb]
Winds: from the NW (310 degrees) at 13 MPH (11 knots; 5.7 m/s)
gusting to 18 MPH (16 knots; 8.2 m/s)
Visibility: 9 miles (14 km)
Ceiling: 3900 feet AGL
Clouds: overcast cloud deck at 3900 feet AGL
Weather: -SN  (light snow)

METAR text: CYTZ 190410Z AUTO 31012KT 300V360 9SM OVC039 M04/M11 A3025 RMK SLP248
Conditions at: CYTZ (TORONTO IL VOR , ON, CA) observed 0410 UTC 19 January 2019
Temperature: -4.0°C (25°F)
Dewpoint: -11.0°C (12°F) [RH = 58%]
Pressure (altimeter): 30.25 inches Hg (1024.5 mb)
[Sea-level pressure: 1024.8 mb]
Winds: from the NW (310 degrees) at 14 MPH (12 knots; 6.2 m/s)
Visibility: 9 miles (14 km)
Ceiling: 3900 feet AGL
Clouds: overcast cloud deck at 3900 feet AGL
Weather: no significant weather observed at this time

METAR text: CYTZ 190400Z AUTO 33009G16KT 9SM -SN OVC037 M04/M10 A3025 RMK SLP248
Conditions at: CYTZ (TORONTO IL VOR , ON, CA) observed 0400 UTC 19 January 2019
Temperature: -4.0°C (25°F)
Dewpoint: -10.0°C (14°F) [RH = 63%]
Pressure (altimeter): 30.25 inches Hg (1024.5 mb)
[Sea-level pressure: 1024.8 mb]
Winds: from the NNW (330 degrees) at 10 MPH (9 knots; 4.6 m/s)
gusting to 18 MPH (16 knots; 8.2 m/s)
Visibility: 9 miles (14 km)
Ceiling: 3700 feet AGL
Clouds: overcast cloud deck at 3700 feet AGL
Weather: -SN  (light snow)

METAR text: CYTZ 190315Z AUTO 35010G15KT 300V020 9SM -SN FEW030 SCT035 BKN170 M03/M10 A3022 RMK SLP240
Conditions at: CYTZ (TORONTO IL VOR , ON, CA) observed 0315 UTC 19 January 2019
Temperature: -3.0°C (27°F)
Dewpoint: -10.0°C (14°F) [RH = 58%]
Pressure (altimeter): 30.22 inches Hg (1023.5 mb)
[Sea-level pressure: 1024.0 mb]
Winds: from the N (350 degrees) at 12 MPH (10 knots; 5.1 m/s)
gusting to 17 MPH (15 knots; 7.7 m/s)
Visibility: 9 miles (14 km)
Ceiling: 17000 feet AGL
Clouds: few clouds at 3000 feet AGL
scattered clouds at 3500 feet AGL
broken clouds at 17000 feet AGL
Weather: -SN  (light snow)

METAR text: CYTZ 190300Z AUTO 30007KT 9SM SCT170 M03/M11 A3022 RMK SLP238
Conditions at: CYTZ (TORONTO IL VOR , ON, CA) observed 0300 UTC 19 January 2019
Temperature: -3.0°C (27°F)
Dewpoint: -11.0°C (12°F) [RH = 54%]
Pressure (altimeter): 30.22 inches Hg (1023.5 mb)
[Sea-level pressure: 1023.8 mb]
Winds: from the WNW (300 degrees) at 8 MPH (7 knots; 3.6 m/s)
Visibility: 9 miles (14 km)
Ceiling: at least 12,000 feet AGL
Clouds: scattered clouds at 17000 feet AGL
Weather: no significant weather observed at this time

METAR text: CYTZ 190200Z AUTO 28007KT 9SM BKN046 BKN130 M03/M11 A3021 RMK SLP235
Conditions at: CYTZ (TORONTO IL VOR , ON, CA) observed 0200 UTC 19 January 2019
Temperature: -3.0°C (27°F)
Dewpoint: -11.0°C (12°F) [RH = 54%]
Pressure (altimeter): 30.21 inches Hg (1023.1 mb)
[Sea-level pressure: 1023.5 mb]
Winds: from the W (280 degrees) at 8 MPH (7 knots; 3.6 m/s)
Visibility: 9 miles (14 km)
Ceiling: 4600 feet AGL
Clouds: broken clouds at 4600 feet AGL
broken clouds at 13000 feet AGL
Weather: no significant weather observed at this time

METAR text: CYTZ 190100Z AUTO 32007KT 280V030 9SM FEW046 OVC140 M03/M11 A3020 RMK SLP234
Conditions at: CYTZ (TORONTO IL VOR , ON, CA) observed 0100 UTC 19 January 2019
Temperature: -3.0°C (27°F)
Dewpoint: -11.0°C (12°F) [RH = 54%]
Pressure (altimeter): 30.20 inches Hg (1022.8 mb)
[Sea-level pressure: 1023.4 mb]
Winds: from the NW (320 degrees) at 8 MPH (7 knots; 3.6 m/s)
Visibility: 9 miles (14 km)
Ceiling: 14000 feet AGL
Clouds: few clouds at 4600 feet AGL
overcast cloud deck at 14000 feet AGL
Weather: no significant weather observed at this time

METAR text: CYTZ 190000Z AUTO 31014KT 9SM BKN045 BKN190 M02/M11 A3019 RMK SLP230
Conditions at: CYTZ (TORONTO IL VOR , ON, CA) observed 0000 UTC 19 January 2019
Temperature: -2.0°C (28°F)
Dewpoint: -11.0°C (12°F) [RH = 50%]
Pressure (altimeter): 30.19 inches Hg (1022.4 mb)
[Sea-level pressure: 1023.0 mb]
Winds: from the NW (310 degrees) at 16 MPH (14 knots; 7.2 m/s)
Visibility: 9 miles (14 km)
Ceiling: 4500 feet AGL
Clouds: broken clouds at 4500 feet AGL
broken clouds at 19000 feet AGL
Weather: no significant weather observed at this time

METAR text: CYTZ 182300Z AUTO 30011G17KT 9SM OVC043 M02/M09 A3015 RMK PRESRR SLP217
Conditions at: CYTZ (TORONTO IL VOR , ON, CA) observed 2300 UTC 18 January 2019
Temperature: -2.0°C (28°F)
Dewpoint: -9.0°C (16°F) [RH = 59%]
Pressure (altimeter): 30.15 inches Hg (1021.1 mb)
[Sea-level pressure: 1021.7 mb]
Winds: from the WNW (300 degrees) at 13 MPH (11 knots; 5.7 m/s)
gusting to 20 MPH (17 knots; 8.7 m/s)
Visibility: 9 miles (14 km)
Ceiling: 4300 feet AGL
Clouds: overcast cloud deck at 4300 feet AGL
Weather: no significant weather observed at this time

METAR text: CYTZ 182246Z AUTO 29013G19KT 9SM OVC041 M01/M09 A3014 RMK PRESRR SLP211
Conditions at: CYTZ (TORONTO IL VOR , ON, CA) observed 2246 UTC 18 January 2019
Temperature: -1.0°C (30°F)
Dewpoint: -9.0°C (16°F) [RH = 55%]
Pressure (altimeter): 30.14 inches Hg (1020.7 mb)
[Sea-level pressure: 1021.1 mb]
Winds: from the WNW (290 degrees) at 15 MPH (13 knots; 6.7 m/s)
gusting to 22 MPH (19 knots; 9.8 m/s)
Visibility: 9 miles (14 km)
Ceiling: 4100 feet AGL
Clouds: overcast cloud deck at 4100 feet AGL
Weather: no significant weather observed at this time

METAR text: CYTZ 182224Z AUTO 29016KT 9SM -SN OVC043 M01/M08 A3012 RMK SLP205
Conditions at: CYTZ (TORONTO IL VOR , ON, CA) observed 2224 UTC 18 January 2019
Temperature: -1.0°C (30°F)
Dewpoint: -8.0°C (18°F) [RH = 59%]
Pressure (altimeter): 30.12 inches Hg (1020.1 mb)
[Sea-level pressure: 1020.5 mb]
Winds: from the WNW (290 degrees) at 18 MPH (16 knots; 8.2 m/s)
Visibility: 9 miles (14 km)
Ceiling: 4300 feet AGL
Clouds: overcast cloud deck at 4300 feet AGL
Weather: -SN  (light snow)

METAR text: CYTZ 182200Z AUTO 28016G21KT 9SM OVC041 M01/M08 A3012 RMK SLP204
Conditions at: CYTZ (TORONTO IL VOR , ON, CA) observed 2200 UTC 18 January 2019
Temperature: -1.0°C (30°F)
Dewpoint: -8.0°C (18°F) [RH = 59%]
Pressure (altimeter): 30.12 inches Hg (1020.1 mb)
[Sea-level pressure: 1020.4 mb]
Winds: from the W (280 degrees) at 18 MPH (16 knots; 8.2 m/s)
gusting to 24 MPH (21 knots; 10.8 m/s)
Visibility: 9 miles (14 km)
Ceiling: 4100 feet AGL
Clouds: overcast cloud deck at 4100 feet AGL
Weather: no significant weather observed at this time

METAR text: CYTZ 182100Z AUTO 28010G19KT 9SM OVC041 M00/M07 A3010 RMK SLP197
Conditions at: CYTZ (TORONTO IL VOR , ON, CA) observed 2100 UTC 18 January 2019
Temperature: 0.0°C (32°F)
Dewpoint: -7.0°C (19°F) [RH = 59%]
Pressure (altimeter): 30.10 inches Hg (1019.4 mb)
[Sea-level pressure: 1019.7 mb]
Winds: from the W (280 degrees) at 12 MPH (10 knots; 5.1 m/s)
gusting to 22 MPH (19 knots; 9.8 m/s)
Visibility: 9 miles (14 km)
Ceiling: 4100 feet AGL
Clouds: overcast cloud deck at 4100 feet AGL
Weather: no significant weather observed at this time

METAR text: CYTZ 182050Z AUTO 29015G23KT 9SM BKN037 OVC047 M00/M08 A3009 RMK SLP195
Conditions at: CYTZ (TORONTO IL VOR , ON, CA) observed 2050 UTC 18 January 2019
Temperature: 0.0°C (32°F)
Dewpoint: -8.0°C (18°F) [RH = 55%]
Pressure (altimeter): 30.09 inches Hg (1019.0 mb)
[Sea-level pressure: 1019.5 mb]
Winds: from the WNW (290 degrees) at 17 MPH (15 knots; 7.7 m/s)
gusting to 26 MPH (23 knots; 11.8 m/s)
Visibility: 9 miles (14 km)
Ceiling: 3700 feet AGL
Clouds: broken clouds at 3700 feet AGL
overcast cloud deck at 4700 feet AGL
Weather: no significant weather observed at this time

METAR text: CYTZ 182033Z AUTO 27019G24KT 9SM -SN OVC044 M00/M07 A3009 RMK SLP194
Conditions at: CYTZ (TORONTO IL VOR , ON, CA) observed 2033 UTC 18 January 2019
Temperature: 0.0°C (32°F)
Dewpoint: -7.0°C (19°F) [RH = 59%]
Pressure (altimeter): 30.09 inches Hg (1019.0 mb)
[Sea-level pressure: 1019.4 mb]
Winds: from the W (270 degrees) at 22 MPH (19 knots; 9.8 m/s)
gusting to 28 MPH (24 knots; 12.3 m/s)
Visibility: 9 miles (14 km)
Ceiling: 4400 feet AGL
Clouds: overcast cloud deck at 4400 feet AGL
Weather: -SN  (light snow)

METAR text: CYTZ 182000Z AUTO 27014G20KT 9SM FEW030 OVC040 00/M06 A3006 RMK SLP186
Conditions at: CYTZ (TORONTO IL VOR , ON, CA) observed 2000 UTC 18 January 2019
Temperature: 0.0°C (32°F)
Dewpoint: -6.0°C (21°F) [RH = 64%]
Pressure (altimeter): 30.06 inches Hg (1018.0 mb)
[Sea-level pressure: 1018.6 mb]
Winds: from the W (270 degrees) at 16 MPH (14 knots; 7.2 m/s)
gusting to 23 MPH (20 knots; 10.3 m/s)
Visibility: 9 miles (14 km)
Ceiling: 4000 feet AGL
Clouds: few clouds at 3000 feet AGL
overcast cloud deck at 4000 feet AGL
Weather: no significant weather observed at this time

METAR text: CYTZ 181952Z AUTO 27015G22KT 9SM FEW030 OVC040 00/M06 A3006 RMK SLP183
Conditions at: CYTZ (TORONTO IL VOR , ON, CA) observed 1952 UTC 18 January 2019
Temperature: 0.0°C (32°F)
Dewpoint: -6.0°C (21°F) [RH = 64%]
Pressure (altimeter): 30.06 inches Hg (1018.0 mb)
[Sea-level pressure: 1018.3 mb]
Winds: from the W (270 degrees) at 17 MPH (15 knots; 7.7 m/s)
gusting to 25 MPH (22 knots; 11.3 m/s)
Visibility: 9 miles (14 km)
Ceiling: 4000 feet AGL
Clouds: few clouds at 3000 feet AGL
overcast cloud deck at 4000 feet AGL
Weather: no significant weather observed at this time

METAR text: CYTZ 181946Z AUTO 27014G22KT 9SM -SN FEW030 OVC038 00/M06 A3005 RMK SLP182
Conditions at: CYTZ (TORONTO IL VOR , ON, CA) observed 1946 UTC 18 January 2019
Temperature: 0.0°C (32°F)
Dewpoint: -6.0°C (21°F) [RH = 64%]
Pressure (altimeter): 30.05 inches Hg (1017.7 mb)
[Sea-level pressure: 1018.2 mb]
Winds: from the W (270 degrees) at 16 MPH (14 knots; 7.2 m/s)
gusting to 25 MPH (22 knots; 11.3 m/s)
Visibility: 9 miles (14 km)
Ceiling: 3800 feet AGL
Clouds: few clouds at 3000 feet AGL
overcast cloud deck at 3800 feet AGL
Weather: -SN  (light snow)

METAR text: CYTZ 181944Z AUTO 28015G21KT 9SM -RASN FEW030 OVC038 00/M05 A3005 RMK SLP182
Conditions at: CYTZ (TORONTO IL VOR , ON, CA) observed 1944 UTC 18 January 2019
Temperature: 0.0°C (32°F)
Dewpoint: -5.0°C (23°F) [RH = 69%]
Pressure (altimeter): 30.05 inches Hg (1017.7 mb)
[Sea-level pressure: 1018.2 mb]
Winds: from the W (280 degrees) at 17 MPH (15 knots; 7.7 m/s)
gusting to 24 MPH (21 knots; 10.8 m/s)
Visibility: 9 miles (14 km)
Ceiling: 3800 feet AGL
Clouds: few clouds at 3000 feet AGL
overcast cloud deck at 3800 feet AGL
Weather: -RA -SN  (light rain, light snow)

METAR text: CYTZ 181933Z AUTO 27013G18KT 9SM -SN SCT030 OVC037 00/M04 A3004 RMK SLP179
Conditions at: CYTZ (TORONTO IL VOR , ON, CA) observed 1933 UTC 18 January 2019
Temperature: 0.0°C (32°F)
Dewpoint: -4.0°C (25°F) [RH = 74%]
Pressure (altimeter): 30.04 inches Hg (1017.4 mb)
[Sea-level pressure: 1017.9 mb]
Winds: from the W (270 degrees) at 15 MPH (13 knots; 6.7 m/s)
gusting to 21 MPH (18 knots; 9.3 m/s)
Visibility: 9 miles (14 km)
Ceiling: 3700 feet AGL
Clouds: scattered clouds at 3000 feet AGL
overcast cloud deck at 3700 feet AGL
Weather: -SN  (light snow)

METAR text: CYTZ 181929Z AUTO 26012G17KT 9SM -SN -UP SCT030 OVC037 M00/M04 A3004 RMK SLP178
Conditions at: CYTZ (TORONTO IL VOR , ON, CA) observed 1929 UTC 18 January 2019
Temperature: 0.0°C (32°F)
Dewpoint: -4.0°C (25°F) [RH = 74%]
Pressure (altimeter): 30.04 inches Hg (1017.4 mb)
[Sea-level pressure: 1017.8 mb]
Winds: from the W (260 degrees) at 14 MPH (12 knots; 6.2 m/s)
gusting to 20 MPH (17 knots; 8.7 m/s)
Visibility: 9 miles (14 km)
Ceiling: 3700 feet AGL
Clouds: scattered clouds at 3000 feet AGL
overcast cloud deck at 3700 feet AGL
Weather: -SN UP  (light snow, unknown precipitation)

METAR text: CYTZ 181927Z AUTO 26013G18KT 9SM -RASN -UP SCT030 OVC037 M00/M04 A3004 RMK SLP178
Conditions at: CYTZ (TORONTO IL VOR , ON, CA) observed 1927 UTC 18 January 2019
Temperature: 0.0°C (32°F)
Dewpoint: -4.0°C (25°F) [RH = 74%]
Pressure (altimeter): 30.04 inches Hg (1017.4 mb)
[Sea-level pressure: 1017.8 mb]
Winds: from the W (260 degrees) at 15 MPH (13 knots; 6.7 m/s)
gusting to 21 MPH (18 knots; 9.3 m/s)
Visibility: 9 miles (14 km)
Ceiling: 3700 feet AGL
Clouds: scattered clouds at 3000 feet AGL
overcast cloud deck at 3700 feet AGL
Weather: -RA -SN UP  (light rain, light snow, unknown precipitation)

METAR text: CYTZ 181923Z AUTO 26014KT 9SM -RA -UP OVC037 M00/M05 A3004 RMK SLP177
Conditions at: CYTZ (TORONTO IL VOR , ON, CA) observed 1923 UTC 18 January 2019
Temperature: 0.0°C (32°F)
Dewpoint: -5.0°C (23°F) [RH = 69%]
Pressure (altimeter): 30.04 inches Hg (1017.4 mb)
[Sea-level pressure: 1017.7 mb]
Winds: from the W (260 degrees) at 16 MPH (14 knots; 7.2 m/s)
Visibility: 9 miles (14 km)
Ceiling: 3700 feet AGL
Clouds: overcast cloud deck at 3700 feet AGL
Weather: -RA UP  (light rain, unknown precipitation)

METAR text: CYTZ 181913Z AUTO 28015KT 9SM -RA OVC037 00/M05 A3003 RMK SLP175
Conditions at: CYTZ (TORONTO IL VOR , ON, CA) observed 1913 UTC 18 January 2019
Temperature: 0.0°C (32°F)
Dewpoint: -5.0°C (23°F) [RH = 69%]
Pressure (altimeter): 30.03 inches Hg (1017.0 mb)
[Sea-level pressure: 1017.5 mb]
Winds: from the W (280 degrees) at 17 MPH (15 knots; 7.7 m/s)
Visibility: 9 miles (14 km)
Ceiling: 3700 feet AGL
Clouds: overcast cloud deck at 3700 feet AGL
Weather: -RA  (light rain)

METAR text: CYTZ 181907Z AUTO 29012G17KT 9SM -RA -UP OVC037 00/M05 A3003 RMK SLP175
Conditions at: CYTZ (TORONTO IL VOR , ON, CA) observed 1907 UTC 18 January 2019
Temperature: 0.0°C (32°F)
Dewpoint: -5.0°C (23°F) [RH = 69%]
Pressure (altimeter): 30.03 inches Hg (1017.0 mb)
[Sea-level pressure: 1017.5 mb]
Winds: from the WNW (290 degrees) at 14 MPH (12 knots; 6.2 m/s)
gusting to 20 MPH (17 knots; 8.7 m/s)
Visibility: 9 miles (14 km)
Ceiling: 3700 feet AGL
Clouds: overcast cloud deck at 3700 feet AGL
Weather: -RA UP  (light rain, unknown precipitation)

METAR text: CYTZ 181904Z AUTO 28011G16KT 9SM -UP OVC037 00/M05 A3003 RMK SLP175
Conditions at: CYTZ (TORONTO IL VOR , ON, CA) observed 1904 UTC 18 January 2019
Temperature: 0.0°C (32°F)
Dewpoint: -5.0°C (23°F) [RH = 69%]
Pressure (altimeter): 30.03 inches Hg (1017.0 mb)
[Sea-level pressure: 1017.5 mb]
Winds: from the W (280 degrees) at 13 MPH (11 knots; 5.7 m/s)
gusting to 18 MPH (16 knots; 8.2 m/s)
Visibility: 9 miles (14 km)
Ceiling: 3700 feet AGL
Clouds: overcast cloud deck at 3700 feet AGL
Weather: UP  (unknown precipitation)

METAR text: CYTZ 181900Z AUTO 27011G16KT 9SM -RA -UP OVC037 00/M04 A3003 RMK SLP175
Conditions at: CYTZ (TORONTO IL VOR , ON, CA) observed 1900 UTC 18 January 2019
Temperature: 0.0°C (32°F)
Dewpoint: -4.0°C (25°F) [RH = 74%]
Pressure (altimeter): 30.03 inches Hg (1017.0 mb)
[Sea-level pressure: 1017.5 mb]
Winds: from the W (270 degrees) at 13 MPH (11 knots; 5.7 m/s)
gusting to 18 MPH (16 knots; 8.2 m/s)
Visibility: 9 miles (14 km)
Ceiling: 3700 feet AGL
Clouds: overcast cloud deck at 3700 feet AGL
Weather: -RA UP  (light rain, unknown precipitation)

METAR text: CYTZ 181858Z AUTO 29014KT 9SM -RA -UP OVC037 00/M04 A3003 RMK SLP174
Conditions at: CYTZ (TORONTO IL VOR , ON, CA) observed 1858 UTC 18 January 2019
Temperature: 0.0°C (32°F)
Dewpoint: -4.0°C (25°F) [RH = 74%]
Pressure (altimeter): 30.03 inches Hg (1017.0 mb)
[Sea-level pressure: 1017.4 mb]
Winds: from the WNW (290 degrees) at 16 MPH (14 knots; 7.2 m/s)
Visibility: 9 miles (14 km)
Ceiling: 3700 feet AGL
Clouds: overcast cloud deck at 3700 feet AGL
Weather: -RA UP  (light rain, unknown precipitation)

METAR text: CYTZ 181807Z AUTO 26012G19KT 9SM -RA SCT024 BKN030 BKN037 OVC043 00/M04 A3003 RMK SLP176
Conditions at: CYTZ (TORONTO IL VOR , ON, CA) observed 1807 UTC 18 January 2019
Temperature: 0.0°C (32°F)
Dewpoint: -4.0°C (25°F) [RH = 74%]
Pressure (altimeter): 30.03 inches Hg (1017.0 mb)
[Sea-level pressure: 1017.6 mb]
Winds: from the W (260 degrees) at 14 MPH (12 knots; 6.2 m/s)
gusting to 22 MPH (19 knots; 9.8 m/s)
Visibility: 9 miles (14 km)
Ceiling: 3000 feet AGL
Clouds: scattered clouds at 2400 feet AGL
broken clouds at 3000 feet AGL
broken clouds at 3700 feet AGL
overcast cloud deck at 4300 feet AGL
Weather: -RA  (light rain)

METAR text: CYTZ 181800Z AUTO 26013KT 9SM -RA -UP SCT027 BKN032 OVC043 00/M04 A3003 RMK SLP175
Conditions at: CYTZ (TORONTO IL VOR , ON, CA) observed 1800 UTC 18 January 2019
Temperature: 0.0°C (32°F)
Dewpoint: -4.0°C (25°F) [RH = 74%]
Pressure (altimeter): 30.03 inches Hg (1017.0 mb)
[Sea-level pressure: 1017.5 mb]
Winds: from the W (260 degrees) at 15 MPH (13 knots; 6.7 m/s)
Visibility: 9 miles (14 km)
Ceiling: 3200 feet AGL
Clouds: scattered clouds at 2700 feet AGL
broken clouds at 3200 feet AGL
overcast cloud deck at 4300 feet AGL
Weather: -RA UP  (light rain, unknown precipitation)

METAR text: CYTZ 181755Z AUTO 26014G19KT 9SM -RA -UP BKN029 BKN036 OVC045 00/M04 A3003 RMK SLP176
Conditions at: CYTZ (TORONTO IL VOR , ON, CA) observed 1755 UTC 18 January 2019
Temperature: 0.0°C (32°F)
Dewpoint: -4.0°C (25°F) [RH = 74%]
Pressure (altimeter): 30.03 inches Hg (1017.0 mb)
[Sea-level pressure: 1017.6 mb]
Winds: from the W (260 degrees) at 16 MPH (14 knots; 7.2 m/s)
gusting to 22 MPH (19 knots; 9.8 m/s)
Visibility: 9 miles (14 km)
Ceiling: 2900 feet AGL
Clouds: broken clouds at 2900 feet AGL
broken clouds at 3600 feet AGL
overcast cloud deck at 4500 feet AGL
Weather: -RA UP  (light rain, unknown precipitation)

METAR text: CYTZ 181737Z AUTO 27013G19KT 9SM -RA BKN030 OVC045 00/M04 A3004 RMK SLP177
Conditions at: CYTZ (TORONTO IL VOR , ON, CA) observed 1737 UTC 18 January 2019
Temperature: 0.0°C (32°F)
Dewpoint: -4.0°C (25°F) [RH = 74%]
Pressure (altimeter): 30.04 inches Hg (1017.4 mb)
[Sea-level pressure: 1017.7 mb]
Winds: from the W (270 degrees) at 15 MPH (13 knots; 6.7 m/s)
gusting to 22 MPH (19 knots; 9.8 m/s)
Visibility: 9 miles (14 km)
Ceiling: 3000 feet AGL
Clouds: broken clouds at 3000 feet AGL
overcast cloud deck at 4500 feet AGL
Weather: -RA  (light rain)

METAR text: CYTZ 181700Z AUTO 23012KT 9SM OVC045 00/M04 A3004 RMK SLP177
Conditions at: CYTZ (TORONTO IL VOR , ON, CA) observed 1700 UTC 18 January 2019
Temperature: 0.0°C (32°F)
Dewpoint: -4.0°C (25°F) [RH = 74%]
Pressure (altimeter): 30.04 inches Hg (1017.4 mb)
[Sea-level pressure: 1017.7 mb]
Winds: from the SW (230 degrees) at 14 MPH (12 knots; 6.2 m/s)
Visibility: 9 miles (14 km)
Ceiling: 4500 feet AGL
Clouds: overcast cloud deck at 4500 feet AGL
Weather: no significant weather observed at this time

METAR text: CYTZ 181500Z AUTO 28004KT 9SM CLR M00/M04 A3002 RMK SLP171
Conditions at: CYTZ (TORONTO IL VOR , ON, CA) observed 1500 UTC 18 January 2019
Temperature: 0.0°C (32°F)
Dewpoint: -4.0°C (25°F) [RH = 74%]
Pressure (altimeter): 30.02 inches Hg (1016.7 mb)
[Sea-level pressure: 1017.1 mb]
Winds: from the W (280 degrees) at 5 MPH (4 knots; 2.1 m/s)
Visibility: 9 miles (14 km)
Ceiling: at least 12,000 feet AGL
Clouds: sky clear below 12,000 feet AGL
Weather: no significant weather observed at this time

METAR text: CYTZ 181400Z AUTO 26006KT 9SM BKN095 M02/M05 A3001 RMK SLP169
Conditions at: CYTZ (TORONTO IL VOR , ON, CA) observed 1400 UTC 18 January 2019
Temperature: -2.0°C (28°F)
Dewpoint: -5.0°C (23°F) [RH = 80%]
Pressure (altimeter): 30.01 inches Hg (1016.3 mb)
[Sea-level pressure: 1016.9 mb]
Winds: from the W (260 degrees) at 7 MPH (6 knots; 3.1 m/s)
Visibility: 9 miles (14 km)
Ceiling: 9500 feet AGL
Clouds: broken clouds at 9500 feet AGL
Weather: no significant weather observed at this time

METAR text: CYTZ 181328Z AUTO 29007KT 9SM BKN032 BKN055 OVC100 M02/M04 A3000 RMK SLP165
Conditions at: CYTZ (TORONTO IL VOR , ON, CA) observed 1328 UTC 18 January 2019
Temperature: -2.0°C (28°F)
Dewpoint: -4.0°C (25°F) [RH = 86%]
Pressure (altimeter): 30.00 inches Hg (1016.0 mb)
[Sea-level pressure: 1016.5 mb]
Winds: from the WNW (290 degrees) at 8 MPH (7 knots; 3.6 m/s)
Visibility: 9 miles (14 km)
Ceiling: 3200 feet AGL
Clouds: broken clouds at 3200 feet AGL
broken clouds at 5500 feet AGL
overcast cloud deck at 10000 feet AGL
Weather: no significant weather observed at this time

METAR text: CYTZ 181300Z AUTO 28006KT 7SM -SN OVC050 M02/M04 A2999 RMK SLP162
Conditions at: CYTZ (TORONTO IL VOR , ON, CA) observed 1300 UTC 18 January 2019
Temperature: -2.0°C (28°F)
Dewpoint: -4.0°C (25°F) [RH = 86%]
Pressure (altimeter): 29.99 inches Hg (1015.7 mb)
[Sea-level pressure: 1016.2 mb]
Winds: from the W (280 degrees) at 7 MPH (6 knots; 3.1 m/s)
Visibility: 7 miles (11 km)
Ceiling: 5000 feet AGL
Clouds: overcast cloud deck at 5000 feet AGL
Weather: -SN  (light snow)

METAR text: CYTZ 181235Z AUTO 27006KT 6SM -SN BKN041 OVC055 M02/M04 A2998 RMK SLP159
Conditions at: CYTZ (TORONTO IL VOR , ON, CA) observed 1235 UTC 18 January 2019
Temperature: -2.0°C (28°F)
Dewpoint: -4.0°C (25°F) [RH = 86%]
Pressure (altimeter): 29.98 inches Hg (1015.3 mb)
[Sea-level pressure: 1015.9 mb]
Winds: from the W (270 degrees) at 7 MPH (6 knots; 3.1 m/s)
Visibility: 6 miles (10 km)
Ceiling: 4100 feet AGL
Clouds: broken clouds at 4100 feet AGL
overcast cloud deck at 5500 feet AGL
Weather: -SN  (light snow)

METAR text: CYTZ 181218Z AUTO 27006KT 5SM -SN OVC046 M02/M04 A2998 RMK SLP159
Conditions at: CYTZ (TORONTO IL VOR , ON, CA) observed 1218 UTC 18 January 2019
Temperature: -2.0°C (28°F)
Dewpoint: -4.0°C (25°F) [RH = 86%]
Pressure (altimeter): 29.98 inches Hg (1015.3 mb)
[Sea-level pressure: 1015.9 mb]
Winds: from the W (270 degrees) at 7 MPH (6 knots; 3.1 m/s)
Visibility: 5 miles ( 8 km)
Ceiling: 4600 feet AGL
Clouds: overcast cloud deck at 4600 feet AGL
Weather: -SN  (light snow)

METAR text: CYTZ 181200Z AUTO 27006KT 7SM -SN BKN049 OVC065 M02/M04 A2998 RMK SLP157
Conditions at: CYTZ (TORONTO IL VOR , ON, CA) observed 1200 UTC 18 January 2019
Temperature: -2.0°C (28°F)
Dewpoint: -4.0°C (25°F) [RH = 86%]
Pressure (altimeter): 29.98 inches Hg (1015.3 mb)
[Sea-level pressure: 1015.7 mb]
Winds: from the W (270 degrees) at 7 MPH (6 knots; 3.1 m/s)
Visibility: 7 miles (11 km)
Ceiling: 4900 feet AGL
Clouds: broken clouds at 4900 feet AGL
overcast cloud deck at 6500 feet AGL
Weather: -SN  (light snow)

METAR text: CYTZ 181100Z AUTO 30004KT 6SM -SN FEW008 BKN033 OVC041 M02/M03 A2995 RMK SLP147
Conditions at: CYTZ (TORONTO IL VOR , ON, CA) observed 1100 UTC 18 January 2019
Temperature: -2.0°C (28°F)
Dewpoint: -3.0°C (27°F) [RH = 93%]
Pressure (altimeter): 29.95 inches Hg (1014.3 mb)
[Sea-level pressure: 1014.7 mb]
Winds: from the WNW (300 degrees) at 5 MPH (4 knots; 2.1 m/s)
Visibility: 6 miles (10 km)
Ceiling: 3300 feet AGL
Clouds: few clouds at 800 feet AGL
broken clouds at 3300 feet AGL
overcast cloud deck at 4100 feet AGL
Weather: -SN  (light snow)

METAR text: CYTZ 181048Z AUTO 30004KT 7SM -SN FEW008 SCT016 SCT021 OVC031 M02/M03 A2995 RMK SLP147
Conditions at: CYTZ (TORONTO IL VOR , ON, CA) observed 1048 UTC 18 January 2019
Temperature: -2.0°C (28°F)
Dewpoint: -3.0°C (27°F) [RH = 93%]
Pressure (altimeter): 29.95 inches Hg (1014.3 mb)
[Sea-level pressure: 1014.7 mb]
Winds: from the WNW (300 degrees) at 5 MPH (4 knots; 2.1 m/s)
Visibility: 7 miles (11 km)
Ceiling: 3100 feet AGL
Clouds: few clouds at 800 feet AGL
scattered clouds at 1600 feet AGL
scattered clouds at 2100 feet AGL
overcast cloud deck at 3100 feet AGL
Weather: -SN  (light snow)

METAR text: CYTZ 181039Z AUTO 32004KT 7SM -SN SCT008 BKN017 OVC029 M02/M03 A2995 RMK SLP146
Conditions at: CYTZ (TORONTO IL VOR , ON, CA) observed 1039 UTC 18 January 2019
Temperature: -2.0°C (28°F)
Dewpoint: -3.0°C (27°F) [RH = 93%]
Pressure (altimeter): 29.95 inches Hg (1014.3 mb)
[Sea-level pressure: 1014.6 mb]
Winds: from the NW (320 degrees) at 5 MPH (4 knots; 2.1 m/s)
Visibility: 7 miles (11 km)
Ceiling: 1700 feet AGL
Clouds: scattered clouds at 800 feet AGL
broken clouds at 1700 feet AGL
overcast cloud deck at 2900 feet AGL
Weather: -SN  (light snow)

METAR text: CYTZ 181000Z AUTO 29003KT 8SM -SN BKN010 OVC020 M02/M03 A2995 RMK SLP146
Conditions at: CYTZ (TORONTO IL VOR , ON, CA) observed 1000 UTC 18 January 2019
Temperature: -2.0°C (28°F)
Dewpoint: -3.0°C (27°F) [RH = 93%]
Pressure (altimeter): 29.95 inches Hg (1014.3 mb)
[Sea-level pressure: 1014.6 mb]
Winds: from the WNW (290 degrees) at 3 MPH (3 knots; 1.5 m/s)
Visibility: 8 miles (13 km)
Ceiling: 1000 feet AGL
Clouds: broken clouds at 1000 feet AGL
overcast cloud deck at 2000 feet AGL
Weather: -SN  (light snow)

METAR text: CYTZ 180934Z AUTO 00000KT 6SM -SN OVC023 M02/M03 A2994 RMK SLP143
Conditions at: CYTZ (TORONTO IL VOR , ON, CA) observed 0934 UTC 18 January 2019
Temperature: -2.0°C (28°F)
Dewpoint: -3.0°C (27°F) [RH = 93%]
Pressure (altimeter): 29.94 inches Hg (1014.0 mb)
[Sea-level pressure: 1014.3 mb]
Winds: calm
Visibility: 6 miles (10 km)
Ceiling: 2300 feet AGL
Clouds: overcast cloud deck at 2300 feet AGL
Weather: -SN  (light snow)

METAR text: CYTZ 180933Z AUTO 00000KT 5SM -SN OVC023 M02/M03 A2994 RMK SLP143
Conditions at: CYTZ (TORONTO IL VOR , ON, CA) observed 0933 UTC 18 January 2019
Temperature: -2.0°C (28°F)
Dewpoint: -3.0°C (27°F) [RH = 93%]
Pressure (altimeter): 29.94 inches Hg (1014.0 mb)
[Sea-level pressure: 1014.3 mb]
Winds: calm
Visibility: 5 miles ( 8 km)
Ceiling: 2300 feet AGL
Clouds: overcast cloud deck at 2300 feet AGL
Weather: -SN  (light snow)

METAR text: CYTZ 180900Z AUTO 00000KT 5SM -SN OVC031 M02/M03 A2995 RMK SLP147
Conditions at: CYTZ (TORONTO IL VOR , ON, CA) observed 0900 UTC 18 January 2019
Temperature: -2.0°C (28°F)
Dewpoint: -3.0°C (27°F) [RH = 93%]
Pressure (altimeter): 29.95 inches Hg (1014.3 mb)
[Sea-level pressure: 1014.7 mb]
Winds: calm
Visibility: 5 miles ( 8 km)
Ceiling: 3100 feet AGL
Clouds: overcast cloud deck at 3100 feet AGL
Weather: -SN  (light snow)

METAR text: CYTZ 180836Z AUTO 13002KT 3SM -SN OVC035 M02/M03 A2995 RMK SLP148
Conditions at: CYTZ (TORONTO IL VOR , ON, CA) observed 0836 UTC 18 January 2019
Temperature: -2.0°C (28°F)
Dewpoint: -3.0°C (27°F) [RH = 93%]
Pressure (altimeter): 29.95 inches Hg (1014.3 mb)
[Sea-level pressure: 1014.8 mb]
Winds: from the SE (130 degrees) at 2 MPH (2 knots; 1.0 m/s)
Visibility: 3 miles ( 5 km)
Ceiling: 3500 feet AGL
Clouds: overcast cloud deck at 3500 feet AGL
Weather: -SN  (light snow)

METAR text: CYTZ 180813Z AUTO 14002KT 2 1/2SM -SN OVC035 M02/M03 A2996 RMK SLP150
Conditions at: CYTZ (TORONTO IL VOR , ON, CA) observed 0813 UTC 18 January 2019
Temperature: -2.0°C (28°F)
Dewpoint: -3.0°C (27°F) [RH = 93%]
Pressure (altimeter): 29.96 inches Hg (1014.6 mb)
[Sea-level pressure: 1015.0 mb]
Winds: from the SE (140 degrees) at 2 MPH (2 knots; 1.0 m/s)
Visibility: 2.50 miles (4.02 km)
Ceiling: 3500 feet AGL
Clouds: overcast cloud deck at 3500 feet AGL
Weather: -SN  (light snow)

METAR text: CYTZ 180800Z AUTO 00000KT 5SM -SN OVC033 M02/M03 A2996 RMK SLP151
Conditions at: CYTZ (TORONTO IL VOR , ON, CA) observed 0800 UTC 18 January 2019
Temperature: -2.0°C (28°F)
Dewpoint: -3.0°C (27°F) [RH = 93%]
Pressure (altimeter): 29.96 inches Hg (1014.6 mb)
[Sea-level pressure: 1015.1 mb]
Winds: calm
Visibility: 5 miles ( 8 km)
Ceiling: 3300 feet AGL
Clouds: overcast cloud deck at 3300 feet AGL
Weather: -SN  (light snow)

METAR text: CYTZ 180752Z AUTO 00000KT 3SM -SN OVC033 M02/M03 A2996 RMK SLP152
Conditions at: CYTZ (TORONTO IL VOR , ON, CA) observed 0752 UTC 18 January 2019
Temperature: -2.0°C (28°F)
Dewpoint: -3.0°C (27°F) [RH = 93%]
Pressure (altimeter): 29.96 inches Hg (1014.6 mb)
[Sea-level pressure: 1015.2 mb]
Winds: calm
Visibility: 3 miles ( 5 km)
Ceiling: 3300 feet AGL
Clouds: overcast cloud deck at 3300 feet AGL
Weather: -SN  (light snow)

METAR text: CYTZ 180732Z AUTO 00000KT 1 3/4SM -SN SCT019 OVC035 M02/M04 A2996 RMK SLP152
Conditions at: CYTZ (TORONTO IL VOR , ON, CA) observed 0732 UTC 18 January 2019
Temperature: -2.0°C (28°F)
Dewpoint: -4.0°C (25°F) [RH = 86%]
Pressure (altimeter): 29.96 inches Hg (1014.6 mb)
[Sea-level pressure: 1015.2 mb]
Winds: calm
Visibility: 1.75 miles (2.82 km)
Ceiling: 3500 feet AGL
Clouds: scattered clouds at 1900 feet AGL
overcast cloud deck at 3500 feet AGL
Weather: -SN  (light snow)

METAR text: CYTZ 180700Z AUTO 10003KT 1 1/2SM -SN OVC023 M02/M04 A2996 RMK SLP151
Conditions at: CYTZ (TORONTO IL VOR , ON, CA) observed 0700 UTC 18 January 2019
Temperature: -2.0°C (28°F)
Dewpoint: -4.0°C (25°F) [RH = 86%]
Pressure (altimeter): 29.96 inches Hg (1014.6 mb)
[Sea-level pressure: 1015.1 mb]
Winds: from the E (100 degrees) at 3 MPH (3 knots; 1.5 m/s)
Visibility: 1.50 miles (2.41 km)
Ceiling: 2300 feet AGL
Clouds: overcast cloud deck at 2300 feet AGL
Weather: -SN  (light snow)

METAR text: CYTZ 180651Z AUTO 11002KT 1 3/4SM -SN OVC023 M02/M04 A2996 RMK SLP152
Conditions at: CYTZ (TORONTO IL VOR , ON, CA) observed 0651 UTC 18 January 2019
Temperature: -2.0°C (28°F)
Dewpoint: -4.0°C (25°F) [RH = 86%]
Pressure (altimeter): 29.96 inches Hg (1014.6 mb)
[Sea-level pressure: 1015.2 mb]
Winds: from the ESE (110 degrees) at 2 MPH (2 knots; 1.0 m/s)
Visibility: 1.75 miles (2.82 km)
Ceiling: 2300 feet AGL
Clouds: overcast cloud deck at 2300 feet AGL
Weather: -SN  (light snow)

METAR text: CYTZ 180645Z AUTO 12002KT 1 3/4SM -SN SCT020 OVC025 M02/M04 A2997 RMK SLP153
Conditions at: CYTZ (TORONTO IL VOR , ON, CA) observed 0645 UTC 18 January 2019
Temperature: -2.0°C (28°F)
Dewpoint: -4.0°C (25°F) [RH = 86%]
Pressure (altimeter): 29.97 inches Hg (1015.0 mb)
[Sea-level pressure: 1015.3 mb]
Winds: from the ESE (120 degrees) at 2 MPH (2 knots; 1.0 m/s)
Visibility: 1.75 miles (2.82 km)
Ceiling: 2500 feet AGL
Clouds: scattered clouds at 2000 feet AGL
overcast cloud deck at 2500 feet AGL
Weather: -SN  (light snow)

METAR text: CYTZ 180633Z AUTO 09002KT 2 1/4SM -SN OVC020 M02/M04 A2997 RMK SLP153
Conditions at: CYTZ (TORONTO IL VOR , ON, CA) observed 0633 UTC 18 January 2019
Temperature: -2.0°C (28°F)
Dewpoint: -4.0°C (25°F) [RH = 86%]
Pressure (altimeter): 29.97 inches Hg (1015.0 mb)
[Sea-level pressure: 1015.3 mb]
Winds: from the E (90 degrees) at 2 MPH (2 knots; 1.0 m/s)
Visibility: 2.25 miles (3.62 km)
Ceiling: 2000 feet AGL
Clouds: overcast cloud deck at 2000 feet AGL
Weather: -SN  (light snow)

METAR text: CYTZ 180623Z AUTO 11003KT 5SM -SN OVC022 M02/M04 A2997 RMK SLP155
Conditions at: CYTZ (TORONTO IL VOR , ON, CA) observed 0623 UTC 18 January 2019
Temperature: -2.0°C (28°F)
Dewpoint: -4.0°C (25°F) [RH = 86%]
Pressure (altimeter): 29.97 inches Hg (1015.0 mb)
[Sea-level pressure: 1015.5 mb]
Winds: from the ESE (110 degrees) at 3 MPH (3 knots; 1.5 m/s)
Visibility: 5 miles ( 8 km)
Ceiling: 2200 feet AGL
Clouds: overcast cloud deck at 2200 feet AGL
Weather: -SN  (light snow)

METAR text: CYTZ 180606Z AUTO 09003KT 6SM -SN OVC022 M02/M04 A2998 RMK SLP156
Conditions at: CYTZ (TORONTO IL VOR , ON, CA) observed 0606 UTC 18 January 2019
Temperature: -2.0°C (28°F)
Dewpoint: -4.0°C (25°F) [RH = 86%]
Pressure (altimeter): 29.98 inches Hg (1015.3 mb)
[Sea-level pressure: 1015.6 mb]
Winds: from the E (90 degrees) at 3 MPH (3 knots; 1.5 m/s)
Visibility: 6 miles (10 km)
Ceiling: 2200 feet AGL
Clouds: overcast cloud deck at 2200 feet AGL
Weather: -SN  (light snow)

METAR text: CYTZ 180600Z AUTO 11003KT 5SM -SN OVC022 M02/M04 A2998 RMK SLP156
Conditions at: CYTZ (TORONTO IL VOR , ON, CA) observed 0600 UTC 18 January 2019
Temperature: -2.0°C (28°F)
Dewpoint: -4.0°C (25°F) [RH = 86%]
Pressure (altimeter): 29.98 inches Hg (1015.3 mb)
[Sea-level pressure: 1015.6 mb]
Winds: from the ESE (110 degrees) at 3 MPH (3 knots; 1.5 m/s)
Visibility: 5 miles ( 8 km)
Ceiling: 2200 feet AGL
Clouds: overcast cloud deck at 2200 feet AGL
Weather: -SN  (light snow)

METAR text: CYTZ 180537Z AUTO 11004KT 4SM -SN BKN024 OVC036 M02/M05 A2999 RMK SLP161
Conditions at: CYTZ (TORONTO IL VOR , ON, CA) observed 0537 UTC 18 January 2019
Temperature: -2.0°C (28°F)
Dewpoint: -5.0°C (23°F) [RH = 80%]
Pressure (altimeter): 29.99 inches Hg (1015.7 mb)
[Sea-level pressure: 1016.1 mb]
Winds: from the ESE (110 degrees) at 5 MPH (4 knots; 2.1 m/s)
Visibility: 4 miles ( 6 km)
Ceiling: 2400 feet AGL
Clouds: broken clouds at 2400 feet AGL
overcast cloud deck at 3600 feet AGL
Weather: -SN  (light snow)

METAR text: CYTZ 180513Z AUTO 07005KT 5SM -SN OVC036 M02/M05 A3000 RMK SLP165
Conditions at: CYTZ (TORONTO IL VOR , ON, CA) observed 0513 UTC 18 January 2019
Temperature: -2.0°C (28°F)
Dewpoint: -5.0°C (23°F) [RH = 80%]
Pressure (altimeter): 30.00 inches Hg (1016.0 mb)
[Sea-level pressure: 1016.5 mb]
Winds: from the ENE (70 degrees) at 6 MPH (5 knots; 2.6 m/s)
Visibility: 5 miles ( 8 km)
Ceiling: 3600 feet AGL
Clouds: overcast cloud deck at 3600 feet AGL
Weather: -SN  (light snow)

METAR text: CYTZ 180500Z AUTO 09005KT 7SM -SN OVC036 M02/M05 A3001 RMK SLP166
Conditions at: CYTZ (TORONTO IL VOR , ON, CA) observed 0500 UTC 18 January 2019
Temperature: -2.0°C (28°F)
Dewpoint: -5.0°C (23°F) [RH = 80%]
Pressure (altimeter): 30.01 inches Hg (1016.3 mb)
[Sea-level pressure: 1016.6 mb]
Winds: from the E (90 degrees) at 6 MPH (5 knots; 2.6 m/s)
Visibility: 7 miles (11 km)
Ceiling: 3600 feet AGL
Clouds: overcast cloud deck at 3600 feet AGL
Weather: -SN  (light snow)

METAR text: CYTZ 180400Z AUTO 10004KT 9SM -SN OVC032 M02/M06 A3003 RMK SLP173
Conditions at: CYTZ (TORONTO IL VOR , ON, CA) observed 0400 UTC 18 January 2019
Temperature: -2.0°C (28°F)
Dewpoint: -6.0°C (21°F) [RH = 74%]
Pressure (altimeter): 30.03 inches Hg (1017.0 mb)
[Sea-level pressure: 1017.3 mb]
Winds: from the E (100 degrees) at 5 MPH (4 knots; 2.1 m/s)
Visibility: 9 miles (14 km)
Ceiling: 3200 feet AGL
Clouds: overcast cloud deck at 3200 feet AGL
Weather: -SN  (light snow)

METAR text: CYTZ 180339Z AUTO 08009KT 9SM -SN OVC032 M02/M07 A3003 RMK SLP176
Conditions at: CYTZ (TORONTO IL VOR , ON, CA) observed 0339 UTC 18 January 2019
Temperature: -2.0°C (28°F)
Dewpoint: -7.0°C (19°F) [RH = 69%]
Pressure (altimeter): 30.03 inches Hg (1017.0 mb)
[Sea-level pressure: 1017.6 mb]
Winds: from the E (80 degrees) at 10 MPH (9 knots; 4.6 m/s)
Visibility: 9 miles (14 km)
Ceiling: 3200 feet AGL
Clouds: overcast cloud deck at 3200 feet AGL
Weather: -SN  (light snow)

METAR text: CYTZ 180300Z AUTO 08009KT 9SM OVC042 M02/M07 A3004 RMK SLP178
Conditions at: CYTZ (TORONTO IL VOR , ON, CA) observed 0300 UTC 18 January 2019
Temperature: -2.0°C (28°F)
Dewpoint: -7.0°C (19°F) [RH = 69%]
Pressure (altimeter): 30.04 inches Hg (1017.4 mb)
[Sea-level pressure: 1017.8 mb]
Winds: from the E (80 degrees) at 10 MPH (9 knots; 4.6 m/s)
Visibility: 9 miles (14 km)
Ceiling: 4200 feet AGL
Clouds: overcast cloud deck at 4200 feet AGL
Weather: no significant weather observed at this time

METAR text: CYTZ 180200Z AUTO 09006KT 9SM OVC040 M03/M08 A3007 RMK SLP188
Conditions at: CYTZ (TORONTO IL VOR , ON, CA) observed 0200 UTC 18 January 2019
Temperature: -3.0°C (27°F)
Dewpoint: -8.0°C (18°F) [RH = 68%]
Pressure (altimeter): 30.07 inches Hg (1018.4 mb)
[Sea-level pressure: 1018.8 mb]
Winds: from the E (90 degrees) at 7 MPH (6 knots; 3.1 m/s)
Visibility: 9 miles (14 km)
Ceiling: 4000 feet AGL
Clouds: overcast cloud deck at 4000 feet AGL
Weather: no significant weather observed at this time

METAR text: CYTZ 180100Z AUTO 09007KT 9SM OVC044 M03/M09 A3009 RMK SLP195
Conditions at: CYTZ (TORONTO IL VOR , ON, CA) observed 0100 UTC 18 January 2019
Temperature: -3.0°C (27°F)
Dewpoint: -9.0°C (16°F) [RH = 63%]
Pressure (altimeter): 30.09 inches Hg (1019.0 mb)
[Sea-level pressure: 1019.5 mb]
Winds: from the E (90 degrees) at 8 MPH (7 knots; 3.6 m/s)
Visibility: 9 miles (14 km)
Ceiling: 4400 feet AGL
Clouds: overcast cloud deck at 4400 feet AGL
Weather: no significant weather observed at this time

METAR text: CYTZ 180000Z AUTO 08007KT 9SM FEW050 SCT085 M04/M10 A3011 RMK SLP203
Conditions at: CYTZ (TORONTO IL VOR , ON, CA) observed 0000 UTC 18 January 2019
Temperature: -4.0°C (25°F)
Dewpoint: -10.0°C (14°F) [RH = 63%]
Pressure (altimeter): 30.11 inches Hg (1019.7 mb)
[Sea-level pressure: 1020.3 mb]
Winds: from the E (80 degrees) at 8 MPH (7 knots; 3.6 m/s)
Visibility: 9 miles (14 km)
Ceiling: at least 12,000 feet AGL
Clouds: few clouds at 5000 feet AGL
scattered clouds at 8500 feet AGL
Weather: no significant weather observed at this time

METAR text: CYTZ 172300Z AUTO 09008KT 9SM OVC044 M04/M10 A3013 RMK SLP210
Conditions at: CYTZ (TORONTO IL VOR , ON, CA) observed 2300 UTC 17 January 2019
Temperature: -4.0°C (25°F)
Dewpoint: -10.0°C (14°F) [RH = 63%]
Pressure (altimeter): 30.13 inches Hg (1020.4 mb)
[Sea-level pressure: 1021.0 mb]
Winds: from the E (90 degrees) at 9 MPH (8 knots; 4.1 m/s)
Visibility: 9 miles (14 km)
Ceiling: 4400 feet AGL
Clouds: overcast cloud deck at 4400 feet AGL
Weather: no significant weather observed at this time

Forecast for: CYTZ (TORONTO IL VOR , ON, CA)
Text: TAF CYTZ 190738Z 1908/2008 36010KT P6SM FEW020 OVC100
Forecast period: 0800 to 1100 UTC 19 January 2019
Forecast type: FROM: standard forecast or significant change
Winds: from the N (360 degrees) at 12 MPH (10 knots; 5.1 m/s)
Visibility: 6 or more miles 10+ km)
Ceiling: 10000 feet AGL
Clouds: few clouds at 2000 feet AGL
overcast cloud deck at 10000 feet AGL
Weather: no significant weather forecast for this period
Text: FM191100 04015KT 21/2SM -SN BLSN BKN020 OVC060
Forecast period: 1100 to 1800 UTC 19 January 2019
Forecast type: FROM: standard forecast or significant change
Winds: from the NE (40 degrees) at 17 MPH (15 knots; 7.7 m/s)
Visibility: 2.50 miles (4.02 km)
Ceiling: 2000 feet AGL
Clouds: broken clouds at 2000 feet AGL
overcast cloud deck at 6000 feet AGL
Weather: -SN BLSN  (light snow, blowing snow)
Text: TEMPO 1911/1918 6SM -SHSN SCT020 OVC060
Forecast period: 1100 to 1800 UTC 19 January 2019
Forecast type: TEMPORARY: The following changes expected for less than half the time period
Visibility: 6 miles (10 km)
Ceiling: 6000 feet AGL
Clouds: scattered clouds at 2000 feet AGL
overcast cloud deck at 6000 feet AGL
Weather: -SHSN  (light snow showers)
Text: FM191800 05015G25KT 11/2SM -SN BLSN OVC015
Forecast period: 1800 UTC 19 January 2019 to 0100 UTC 20 January 2019
Forecast type: FROM: standard forecast or significant change
Winds: from the NE (50 degrees) at 17 MPH (15 knots; 7.7 m/s)
gusting to 29 MPH (25 knots; 12.9 m/s)
Visibility: 1.50 miles (2.41 km)
Ceiling: 1500 feet AGL
Clouds: overcast cloud deck at 1500 feet AGL
Weather: -SN BLSN  (light snow, blowing snow)
Text: FM200100 04015G25KT 3/4SM -SN BLSN VV007 RMK FCST BASED ON AUTO OBS. NXT FCST BY 191400Z
Forecast period: 0100 to 0800 UTC 20 January 2019
Forecast type: FROM: standard forecast or significant change
Winds: from the NE (40 degrees) at 17 MPH (15 knots; 7.7 m/s)
gusting to 29 MPH (25 knots; 12.9 m/s)
Visibility: 0.75 miles (1.21 km)
Ceiling: indefinite ceiling with vertical visibility of 700 feet AGL
Clouds: obscured sky
Weather: -SN BLSN  (light snow, blowing snow)